Miland, Texas
Current Conditions -  °F | °C
As of 9:56 PM on Saturday 22 Nov 2014 (Local Time) from KAQV Reporting Station
Light Rain Light Rain  
Wind Chill: 64°   Ceiling: 900
Heat Index: 64°   Visibility: 6mi
Dew Point: 61°   Wind: 8mph
Humidity: 90%   Direction: 140°SE
Pressure: 29.84"   Gusts: NA
Location:  31.4918°N, 93.8786°W
Report Text: KAQV 230356Z AUTO 14007KT 6SM -RA BR OVC009 18/16 A2984 RMK AO2 RAE20B55 CIG 006V013 SLP101 P0000 T01780161
Loading
Personal Weather Stations






























Interactive Weather Map New forecast layout! Learn more

10-Day Weather Forecast

Advertisements
Track Severe Weather on mobile